sensor_id;sensor_type;location;lat;lon;timestamp;temperature;humidity
20526;DHT22;10421;49.142;9.232;2023-05-07T00:02:04;20.20;90.00
20526;DHT22;10421;49.142;9.232;2023-05-07T00:04:30;20.20;90.10
20526;DHT22;10421;49.142;9.232;2023-05-07T00:07:02;20.20;90.20
20526;DHT22;10421;49.142;9.232;2023-05-07T00:09:29;20.10;90.20
20526;DHT22;10421;49.142;9.232;2023-05-07T00:11:55;20.10;90.20
20526;DHT22;10421;49.142;9.232;2023-05-07T00:14:22;20.10;90.30
20526;DHT22;10421;49.142;9.232;2023-05-07T00:16:49;20.00;90.30
20526;DHT22;10421;49.142;9.232;2023-05-07T00:19:17;20.00;90.40
20526;DHT22;10421;49.142;9.232;2023-05-07T00:21:44;20.00;90.50
20526;DHT22;10421;49.142;9.232;2023-05-07T00:24:10;19.90;90.50
20526;DHT22;10421;49.142;9.232;2023-05-07T00:26:37;19.90;90.60
20526;DHT22;10421;49.142;9.232;2023-05-07T00:29:04;19.90;90.80
20526;DHT22;10421;49.142;9.232;2023-05-07T00:31:30;19.80;90.80
20526;DHT22;10421;49.142;9.232;2023-05-07T00:33:57;19.80;90.80
20526;DHT22;10421;49.142;9.232;2023-05-07T00:36:25;19.70;90.90
20526;DHT22;10421;49.142;9.232;2023-05-07T00:38:54;19.70;91.00
20526;DHT22;10421;49.142;9.232;2023-05-07T00:41:21;19.60;91.10
20526;DHT22;10421;49.142;9.232;2023-05-07T00:43:48;19.60;91.20
20526;DHT22;10421;49.142;9.232;2023-05-07T00:46:17;19.60;91.40
20526;DHT22;10421;49.142;9.232;2023-05-07T00:48:44;19.50;91.60
20526;DHT22;10421;49.142;9.232;2023-05-07T00:51:11;19.50;91.80
20526;DHT22;10421;49.142;9.232;2023-05-07T00:53:40;19.40;92.00
20526;DHT22;10421;49.142;9.232;2023-05-07T00:56:06;19.40;92.20
20526;DHT22;10421;49.142;9.232;2023-05-07T00:58:33;19.30;92.30
20526;DHT22;10421;49.142;9.232;2023-05-07T01:01:00;19.20;92.60
20526;DHT22;10421;49.142;9.232;2023-05-07T01:03:27;19.20;92.80
20526;DHT22;10421;49.142;9.232;2023-05-07T01:05:54;19.10;93.10
20526;DHT22;10421;49.142;9.232;2023-05-07T01:08:22;19.10;93.40
20526;DHT22;10421;49.142;9.232;2023-05-07T01:10:51;19.00;93.40
20526;DHT22;10421;49.142;9.232;2023-05-07T01:13:19;19.00;93.50
20526;DHT22;10421;49.142;9.232;2023-05-07T01:15:46;19.10;93.70
20526;DHT22;10421;49.142;9.232;2023-05-07T01:18:13;19.00;93.70
20526;DHT22;10421;49.142;9.232;2023-05-07T01:20:40;19.10;93.80
20526;DHT22;10421;49.142;9.232;2023-05-07T01:23:09;19.10;93.80
20526;DHT22;10421;49.142;9.232;2023-05-07T01:25:37;19.10;93.80
20526;DHT22;10421;49.142;9.232;2023-05-07T01:28:04;19.10;93.70
20526;DHT22;10421;49.142;9.232;2023-05-07T01:30:32;19.10;93.70
20526;DHT22;10421;49.142;9.232;2023-05-07T01:33:03;19.10;93.70
20526;DHT22;10421;49.142;9.232;2023-05-07T01:35:34;19.10;93.70
20526;DHT22;10421;49.142;9.232;2023-05-07T01:38:03;19.10;93.70
20526;DHT22;10421;49.142;9.232;2023-05-07T01:40:33;19.10;93.80
20526;DHT22;10421;49.142;9.232;2023-05-07T01:43:01;19.10;93.90
20526;DHT22;10421;49.142;9.232;2023-05-07T01:45:28;19.00;94.00
20526;DHT22;10421;49.142;9.232;2023-05-07T01:47:58;18.90;94.10
20526;DHT22;10421;49.142;9.232;2023-05-07T01:50:25;18.90;94.30
20526;DHT22;10421;49.142;9.232;2023-05-07T01:52:52;18.90;94.40
20526;DHT22;10421;49.142;9.232;2023-05-07T01:55:19;18.80;94.40
20526;DHT22;10421;49.142;9.232;2023-05-07T01:57:47;18.80;94.50
20526;DHT22;10421;49.142;9.232;2023-05-07T02:00:14;18.70;94.50
20526;DHT22;10421;49.142;9.232;2023-05-07T02:02:41;18.70;94.60
20526;DHT22;10421;49.142;9.232;2023-05-07T02:05:08;18.60;94.70
20526;DHT22;10421;49.142;9.232;2023-05-07T02:07:35;18.60;94.80
20526;DHT22;10421;49.142;9.232;2023-05-07T02:10:02;18.60;94.90
20526;DHT22;10421;49.142;9.232;2023-05-07T02:12:29;18.50;94.90
20526;DHT22;10421;49.142;9.232;2023-05-07T02:14:57;18.60;95.10
20526;DHT22;10421;49.142;9.232;2023-05-07T02:17:24;18.60;95.10
20526;DHT22;10421;49.142;9.232;2023-05-07T02:19:50;18.60;95.10
20526;DHT22;10421;49.142;9.232;2023-05-07T02:22:17;18.60;95.20
20526;DHT22;10421;49.142;9.232;2023-05-07T02:24:44;18.60;95.20
20526;DHT22;10421;49.142;9.232;2023-05-07T02:27:11;18.60;95.20
20526;DHT22;10421;49.142;9.232;2023-05-07T02:29:37;18.50;95.20
20526;DHT22;10421;49.142;9.232;2023-05-07T02:32:06;18.50;95.20
20526;DHT22;10421;49.142;9.232;2023-05-07T02:34:32;18.50;95.30
20526;DHT22;10421;49.142;9.232;2023-05-07T02:36:59;18.50;95.40
20526;DHT22;10421;49.142;9.232;2023-05-07T02:39:26;18.40;95.40
20526;DHT22;10421;49.142;9.232;2023-05-07T02:41:53;18.40;95.50
20526;DHT22;10421;49.142;9.232;2023-05-07T02:44:19;18.40;95.60
20526;DHT22;10421;49.142;9.232;2023-05-07T02:46:46;18.30;95.50
20526;DHT22;10421;49.142;9.232;2023-05-07T02:49:14;18.40;95.50
20526;DHT22;10421;49.142;9.232;2023-05-07T02:51:41;18.30;95.50
20526;DHT22;10421;49.142;9.232;2023-05-07T02:54:07;18.30;95.40
20526;DHT22;10421;49.142;9.232;2023-05-07T02:56:34;18.30;95.40
20526;DHT22;10421;49.142;9.232;2023-05-07T02:59:01;18.20;95.40
20526;DHT22;10421;49.142;9.232;2023-05-07T03:01:27;18.10;95.30
20526;DHT22;10421;49.142;9.232;2023-05-07T03:03:54;18.10;95.40
20526;DHT22;10421;49.142;9.232;2023-05-07T03:06:23;18.00;95.50
20526;DHT22;10421;49.142;9.232;2023-05-07T03:08:50;17.90;95.70
20526;DHT22;10421;49.142;9.232;2023-05-07T03:11:16;17.90;95.80
20526;DHT22;10421;49.142;9.232;2023-05-07T03:13:43;17.90;95.90
20526;DHT22;10421;49.142;9.232;2023-05-07T03:16:10;17.90;95.90
20526;DHT22;10421;49.142;9.232;2023-05-07T03:18:37;17.80;95.90
20526;DHT22;10421;49.142;9.232;2023-05-07T03:21:03;17.90;96.00
20526;DHT22;10421;49.142;9.232;2023-05-07T03:23:32;17.90;96.00
20526;DHT22;10421;49.142;9.232;2023-05-07T03:25:58;17.80;95.90
20526;DHT22;10421;49.142;9.232;2023-05-07T03:28:25;17.80;96.00
20526;DHT22;10421;49.142;9.232;2023-05-07T03:30:52;17.80;96.00
20526;DHT22;10421;49.142;9.232;2023-05-07T03:33:18;17.80;96.00
20526;DHT22;10421;49.142;9.232;2023-05-07T03:35:45;17.80;96.00
20526;DHT22;10421;49.142;9.232;2023-05-07T03:38:12;17.70;95.90
20526;DHT22;10421;49.142;9.232;2023-05-07T03:40:40;17.70;96.20
20526;DHT22;10421;49.142;9.232;2023-05-07T03:43:07;17.70;96.00
20526;DHT22;10421;49.142;9.232;2023-05-07T03:45:33;17.60;96.00
20526;DHT22;10421;49.142;9.232;2023-05-07T03:48:00;17.60;96.00
20526;DHT22;10421;49.142;9.232;2023-05-07T03:50:27;17.60;96.10
20526;DHT22;10421;49.142;9.232;2023-05-07T03:52:54;17.60;96.10
20526;DHT22;10421;49.142;9.232;2023-05-07T03:55:21;17.60;96.10
20526;DHT22;10421;49.142;9.232;2023-05-07T03:57:49;17.60;96.10
20526;DHT22;10421;49.142;9.232;2023-05-07T04:00:16;17.50;96.10
20526;DHT22;10421;49.142;9.232;2023-05-07T04:02:43;17.50;96.20
20526;DHT22;10421;49.142;9.232;2023-05-07T04:05:09;17.40;96.20
20526;DHT22;10421;49.142;9.232;2023-05-07T04:07:36;17.40;96.30
20526;DHT22;10421;49.142;9.232;2023-05-07T04:10:03;17.40;96.30
20526;DHT22;10421;49.142;9.232;2023-05-07T04:12:30;17.30;96.30
20526;DHT22;10421;49.142;9.232;2023-05-07T04:14:59;17.30;96.40
20526;DHT22;10421;49.142;9.232;2023-05-07T04:17:26;17.30;96.40
20526;DHT22;10421;49.142;9.232;2023-05-07T04:19:52;17.30;96.50
20526;DHT22;10421;49.142;9.232;2023-05-07T04:22:19;17.30;96.60
20526;DHT22;10421;49.142;9.232;2023-05-07T04:24:46;17.30;96.80
20526;DHT22;10421;49.142;9.232;2023-05-07T04:27:12;17.30;96.80
20526;DHT22;10421;49.142;9.232;2023-05-07T04:29:39;17.30;96.90
20526;DHT22;10421;49.142;9.232;2023-05-07T04:32:09;17.30;97.00
20526;DHT22;10421;49.142;9.232;2023-05-07T04:34:35;17.30;97.00
20526;DHT22;10421;49.142;9.232;2023-05-07T04:37:02;17.30;97.00
20526;DHT22;10421;49.142;9.232;2023-05-07T04:39:29;17.40;97.00
20526;DHT22;10421;49.142;9.232;2023-05-07T04:41:55;17.40;96.90
20526;DHT22;10421;49.142;9.232;2023-05-07T04:44:22;17.50;96.90
20526;DHT22;10421;49.142;9.232;2023-05-07T04:46:49;17.50;96.90
20526;DHT22;10421;49.142;9.232;2023-05-07T04:49:17;17.50;96.90
20526;DHT22;10421;49.142;9.232;2023-05-07T04:51:44;17.50;96.80
20526;DHT22;10421;49.142;9.232;2023-05-07T04:54:10;17.60;96.80
20526;DHT22;10421;49.142;9.232;2023-05-07T04:56:37;17.60;96.80
20526;DHT22;10421;49.142;9.232;2023-05-07T04:59:04;17.60;96.80
20526;DHT22;10421;49.142;9.232;2023-05-07T05:01:31;17.70;96.90
20526;DHT22;10421;49.142;9.232;2023-05-07T05:03:57;17.70;96.90
20526;DHT22;10421;49.142;9.232;2023-05-07T05:06:26;17.70;96.90
20526;DHT22;10421;49.142;9.232;2023-05-07T05:08:53;17.70;96.90
20526;DHT22;10421;49.142;9.232;2023-05-07T05:11:20;17.80;96.90
20526;DHT22;10421;49.142;9.232;2023-05-07T05:13:47;17.80;96.90
20526;DHT22;10421;49.142;9.232;2023-05-07T05:16:14;17.90;96.90
20526;DHT22;10421;49.142;9.232;2023-05-07T05:18:41;17.90;96.80
20526;DHT22;10421;49.142;9.232;2023-05-07T05:21:07;17.90;96.70
20526;DHT22;10421;49.142;9.232;2023-05-07T05:23:35;18.00;96.70
20526;DHT22;10421;49.142;9.232;2023-05-07T05:26:02;18.00;96.70
20526;DHT22;10421;49.142;9.232;2023-05-07T05:28:29;18.00;96.70
20526;DHT22;10421;49.142;9.232;2023-05-07T05:30:56;18.10;96.70
20526;DHT22;10421;49.142;9.232;2023-05-07T05:33:22;18.10;96.70
20526;DHT22;10421;49.142;9.232;2023-05-07T05:35:49;18.10;96.60
20526;DHT22;10421;49.142;9.232;2023-05-07T05:38:16;18.10;96.60
20526;DHT22;10421;49.142;9.232;2023-05-07T05:40:44;18.10;96.60
20526;DHT22;10421;49.142;9.232;2023-05-07T05:43:11;18.10;96.50
20526;DHT22;10421;49.142;9.232;2023-05-07T05:45:37;18.10;96.50
20526;DHT22;10421;49.142;9.232;2023-05-07T05:48:05;18.10;96.50
20526;DHT22;10421;49.142;9.232;2023-05-07T05:50:32;18.20;96.60
20526;DHT22;10421;49.142;9.232;2023-05-07T05:52:58;18.20;96.60
20526;DHT22;10421;49.142;9.232;2023-05-07T05:55:25;18.20;96.60
20526;DHT22;10421;49.142;9.232;2023-05-07T05:57:53;18.20;96.40
20526;DHT22;10421;49.142;9.232;2023-05-07T06:00:20;18.20;96.30
20526;DHT22;10421;49.142;9.232;2023-05-07T06:02:47;18.20;95.60
20526;DHT22;10421;49.142;9.232;2023-05-07T06:05:14;18.00;95.50
20526;DHT22;10421;49.142;9.232;2023-05-07T06:07:41;18.10;95.60
20526;DHT22;10421;49.142;9.232;2023-05-07T06:10:08;18.10;95.60
20526;DHT22;10421;49.142;9.232;2023-05-07T06:12:35;18.10;95.50
20526;DHT22;10421;49.142;9.232;2023-05-07T06:15:04;18.20;95.50
20526;DHT22;10421;49.142;9.232;2023-05-07T06:17:30;18.30;95.90
20526;DHT22;10421;49.142;9.232;2023-05-07T06:19:57;18.30;95.50
20526;DHT22;10421;49.142;9.232;2023-05-07T06:22:24;18.40;95.40
20526;DHT22;10421;49.142;9.232;2023-05-07T06:24:51;18.40;95.30
20526;DHT22;10421;49.142;9.232;2023-05-07T06:27:18;18.50;95.30
20526;DHT22;10421;49.142;9.232;2023-05-07T06:29:44;18.60;95.30
20526;DHT22;10421;49.142;9.232;2023-05-07T06:32:13;18.70;95.10
20526;DHT22;10421;49.142;9.232;2023-05-07T06:34:40;18.80;95.10
20526;DHT22;10421;49.142;9.232;2023-05-07T06:37:07;18.90;95.00
20526;DHT22;10421;49.142;9.232;2023-05-07T06:39:34;18.90;95.00
20526;DHT22;10421;49.142;9.232;2023-05-07T06:42:01;19.00;95.00
20526;DHT22;10421;49.142;9.232;2023-05-07T06:44:28;19.10;94.90
20526;DHT22;10421;49.142;9.232;2023-05-07T06:46:54;19.10;94.80
20526;DHT22;10421;49.142;9.232;2023-05-07T06:49:22;19.10;94.80
20526;DHT22;10421;49.142;9.232;2023-05-07T06:51:49;19.20;94.80
20526;DHT22;10421;49.142;9.232;2023-05-07T06:54:16;19.30;94.70
20526;DHT22;10421;49.142;9.232;2023-05-07T06:56:43;19.40;94.80
20526;DHT22;10421;49.142;9.232;2023-05-07T06:59:10;19.50;94.80
20526;DHT22;10421;49.142;9.232;2023-05-07T07:01:36;19.60;94.70
20526;DHT22;10421;49.142;9.232;2023-05-07T07:04:03;19.70;94.60
20526;DHT22;10421;49.142;9.232;2023-05-07T07:06:31;19.80;94.40
20526;DHT22;10421;49.142;9.232;2023-05-07T07:08:58;19.90;94.20
20526;DHT22;10421;49.142;9.232;2023-05-07T07:11:25;20.00;94.10
20526;DHT22;10421;49.142;9.232;2023-05-07T07:13:52;20.10;94.10
20526;DHT22;10421;49.142;9.232;2023-05-07T07:16:19;20.30;94.00
20526;DHT22;10421;49.142;9.232;2023-05-07T07:18:46;20.30;93.80
20526;DHT22;10421;49.142;9.232;2023-05-07T07:21:13;20.50;93.80
20526;DHT22;10421;49.142;9.232;2023-05-07T07:23:41;20.70;93.70
20526;DHT22;10421;49.142;9.232;2023-05-07T07:26:08;20.90;93.60
20526;DHT22;10421;49.142;9.232;2023-05-07T07:28:34;21.00;93.50
20526;DHT22;10421;49.142;9.232;2023-05-07T07:31:01;21.20;93.40
20526;DHT22;10421;49.142;9.232;2023-05-07T07:33:28;21.30;93.30
20526;DHT22;10421;49.142;9.232;2023-05-07T07:35:55;21.50;93.30
20526;DHT22;10421;49.142;9.232;2023-05-07T07:38:22;21.70;92.90
20526;DHT22;10421;49.142;9.232;2023-05-07T07:40:50;21.80;92.80
20526;DHT22;10421;49.142;9.232;2023-05-07T07:43:17;22.00;92.40
20526;DHT22;10421;49.142;9.232;2023-05-07T07:45:43;22.10;92.10
20526;DHT22;10421;49.142;9.232;2023-05-07T07:48:11;22.30;91.90
20526;DHT22;10421;49.142;9.232;2023-05-07T07:50:38;22.40;91.70
20526;DHT22;10421;49.142;9.232;2023-05-07T07:53:05;22.50;91.60
20526;DHT22;10421;49.142;9.232;2023-05-07T07:55:31;22.50;91.40
20526;DHT22;10421;49.142;9.232;2023-05-07T07:57:59;22.60;91.40
20526;DHT22;10421;49.142;9.232;2023-05-07T08:00:26;22.60;91.40
20526;DHT22;10421;49.142;9.232;2023-05-07T08:02:53;22.70;91.40
20526;DHT22;10421;49.142;9.232;2023-05-07T08:05:19;22.80;91.40
20526;DHT22;10421;49.142;9.232;2023-05-07T08:07:47;22.90;91.30
20526;DHT22;10421;49.142;9.232;2023-05-07T08:10:17;23.00;91.10
20526;DHT22;10421;49.142;9.232;2023-05-07T08:12:46;23.10;90.90
20526;DHT22;10421;49.142;9.232;2023-05-07T08:15:15;23.20;91.00
20526;DHT22;10421;49.142;9.232;2023-05-07T08:17:41;23.20;90.80
20526;DHT22;10421;49.142;9.232;2023-05-07T08:20:09;23.30;90.60
20526;DHT22;10421;49.142;9.232;2023-05-07T08:22:36;23.50;90.70
20526;DHT22;10421;49.142;9.232;2023-05-07T08:25:03;23.70;90.50
20526;DHT22;10421;49.142;9.232;2023-05-07T08:27:30;23.90;90.10
20526;DHT22;10421;49.142;9.232;2023-05-07T08:29:56;24.00;90.10
20526;DHT22;10421;49.142;9.232;2023-05-07T08:32:24;24.20;90.00
20526;DHT22;10421;49.142;9.232;2023-05-07T08:34:51;24.30;89.30
20526;DHT22;10421;49.142;9.232;2023-05-07T08:37:18;24.50;88.50
20526;DHT22;10421;49.142;9.232;2023-05-07T08:39:44;24.60;87.60
20526;DHT22;10421;49.142;9.232;2023-05-07T08:42:12;24.70;87.50
20526;DHT22;10421;49.142;9.232;2023-05-07T08:44:39;24.80;87.30
20526;DHT22;10421;49.142;9.232;2023-05-07T08:47:07;25.00;87.00
20526;DHT22;10421;49.142;9.232;2023-05-07T08:49:36;25.20;87.10
20526;DHT22;10421;49.142;9.232;2023-05-07T08:52:03;25.30;86.60
20526;DHT22;10421;49.142;9.232;2023-05-07T08:54:31;25.50;86.30
20526;DHT22;10421;49.142;9.232;2023-05-07T08:56:57;25.60;85.60
20526;DHT22;10421;49.142;9.232;2023-05-07T08:59:25;25.80;84.80
20526;DHT22;10421;49.142;9.232;2023-05-07T09:01:52;25.90;84.80
20526;DHT22;10421;49.142;9.232;2023-05-07T09:04:18;26.10;84.70
20526;DHT22;10421;49.142;9.232;2023-05-07T09:06:47;26.20;84.20
20526;DHT22;10421;49.142;9.232;2023-05-07T09:09:14;26.40;84.00
20526;DHT22;10421;49.142;9.232;2023-05-07T09:11:43;26.40;83.70
20526;DHT22;10421;49.142;9.232;2023-05-07T09:14:10;26.50;83.10
20526;DHT22;10421;49.142;9.232;2023-05-07T09:16:37;26.50;82.80
20526;DHT22;10421;49.142;9.232;2023-05-07T09:19:04;26.60;82.40
20526;DHT22;10421;49.142;9.232;2023-05-07T09:21:31;26.60;82.00
20526;DHT22;10421;49.142;9.232;2023-05-07T09:23:59;26.60;81.70
20526;DHT22;10421;49.142;9.232;2023-05-07T09:26:26;26.60;81.30
20526;DHT22;10421;49.142;9.232;2023-05-07T09:28:53;26.70;81.10
20526;DHT22;10421;49.142;9.232;2023-05-07T09:31:20;26.70;81.10
20526;DHT22;10421;49.142;9.232;2023-05-07T09:33:48;26.70;80.90
20526;DHT22;10421;49.142;9.232;2023-05-07T09:36:16;26.80;80.60
20526;DHT22;10421;49.142;9.232;2023-05-07T09:38:42;26.70;79.40
20526;DHT22;10421;49.142;9.232;2023-05-07T09:41:13;26.70;79.00
20526;DHT22;10421;49.142;9.232;2023-05-07T09:43:42;26.70;79.30
20526;DHT22;10421;49.142;9.232;2023-05-07T09:46:12;26.70;79.30
20526;DHT22;10421;49.142;9.232;2023-05-07T09:48:42;26.70;79.30
20526;DHT22;10421;49.142;9.232;2023-05-07T09:51:21;26.80;79.10
20526;DHT22;10421;49.142;9.232;2023-05-07T09:53:50;26.90;78.90
20526;DHT22;10421;49.142;9.232;2023-05-07T09:56:20;27.00;78.30
20526;DHT22;10421;49.142;9.232;2023-05-07T09:58:48;27.10;78.10
20526;DHT22;10421;49.142;9.232;2023-05-07T10:01:17;27.20;77.40
20526;DHT22;10421;49.142;9.232;2023-05-07T10:03:44;27.30;77.30
20526;DHT22;10421;49.142;9.232;2023-05-07T10:06:13;27.40;76.90
20526;DHT22;10421;49.142;9.232;2023-05-07T10:08:42;27.50;76.20
20526;DHT22;10421;49.142;9.232;2023-05-07T10:11:09;27.60;75.90
20526;DHT22;10421;49.142;9.232;2023-05-07T10:13:38;27.70;74.90
20526;DHT22;10421;49.142;9.232;2023-05-07T10:16:06;27.80;71.60
20526;DHT22;10421;49.142;9.232;2023-05-07T10:18:33;27.80;72.60
20526;DHT22;10421;49.142;9.232;2023-05-07T10:21:04;27.80;71.30
20526;DHT22;10421;49.142;9.232;2023-05-07T10:23:33;27.90;72.10
20526;DHT22;10421;49.142;9.232;2023-05-07T10:26:02;28.00;72.30
20526;DHT22;10421;49.142;9.232;2023-05-07T10:28:32;27.90;71.20
20526;DHT22;10421;49.142;9.232;2023-05-07T10:31:10;27.80;72.00
20526;DHT22;10421;49.142;9.232;2023-05-07T10:33:42;27.80;71.80
20526;DHT22;10421;49.142;9.232;2023-05-07T10:36:11;27.60;71.60
20526;DHT22;10421;49.142;9.232;2023-05-07T10:38:38;27.70;71.40
20526;DHT22;10421;49.142;9.232;2023-05-07T10:41:06;27.70;71.30
20526;DHT22;10421;49.142;9.232;2023-05-07T10:43:40;27.70;71.10
20526;DHT22;10421;49.142;9.232;2023-05-07T10:46:15;27.70;71.10
20526;DHT22;10421;49.142;9.232;2023-05-07T10:49:07;27.70;70.90
20526;DHT22;10421;49.142;9.232;2023-05-07T10:51:34;27.80;68.80
20526;DHT22;10421;49.142;9.232;2023-05-07T10:54:20;27.90;67.80
20526;DHT22;10421;49.142;9.232;2023-05-07T10:56:47;28.00;67.50
20526;DHT22;10421;49.142;9.232;2023-05-07T10:59:35;28.20;66.80
20526;DHT22;10421;49.142;9.232;2023-05-07T11:02:09;28.40;65.90
20526;DHT22;10421;49.142;9.232;2023-05-07T11:04:37;28.60;65.30
20526;DHT22;10421;49.142;9.232;2023-05-07T11:07:29;28.60;63.30
20526;DHT22;10421;49.142;9.232;2023-05-07T11:10:03;28.80;63.10
20526;DHT22;10421;49.142;9.232;2023-05-07T11:12:53;29.00;63.10
20526;DHT22;10421;49.142;9.232;2023-05-07T11:15:37;29.10;61.80
20526;DHT22;10421;49.142;9.232;2023-05-07T11:18:05;29.30;61.80
20526;DHT22;10421;49.142;9.232;2023-05-07T11:20:49;29.50;61.60
20526;DHT22;10421;49.142;9.232;2023-05-07T11:23:57;29.70;61.20
20526;DHT22;10421;49.142;9.232;2023-05-07T11:26:24;29.80;59.60
20526;DHT22;10421;49.142;9.232;2023-05-07T11:28:52;29.90;59.50
20526;DHT22;10421;49.142;9.232;2023-05-07T11:31:26;29.90;59.10
20526;DHT22;10421;49.142;9.232;2023-05-07T11:33:56;29.80;58.90
20526;DHT22;10421;49.142;9.232;2023-05-07T11:36:24;29.70;57.70
20526;DHT22;10421;49.142;9.232;2023-05-07T11:38:51;29.70;57.50
20526;DHT22;10421;49.142;9.232;2023-05-07T11:41:18;29.70;57.40
20526;DHT22;10421;49.142;9.232;2023-05-07T11:43:54;29.80;57.60
20526;DHT22;10421;49.142;9.232;2023-05-07T11:46:21;29.80;57.10
20526;DHT22;10421;49.142;9.232;2023-05-07T11:48:48;29.90;56.80
20526;DHT22;10421;49.142;9.232;2023-05-07T11:51:20;29.80;57.20
20526;DHT22;10421;49.142;9.232;2023-05-07T11:53:48;29.90;56.90
20526;DHT22;10421;49.142;9.232;2023-05-07T11:56:16;29.90;57.20
20526;DHT22;10421;49.142;9.232;2023-05-07T11:58:45;30.00;56.20
20526;DHT22;10421;49.142;9.232;2023-05-07T12:01:13;30.10;56.40
20526;DHT22;10421;49.142;9.232;2023-05-07T12:03:41;30.20;55.90
20526;DHT22;10421;49.142;9.232;2023-05-07T12:06:09;30.30;55.60
20526;DHT22;10421;49.142;9.232;2023-05-07T12:08:38;30.40;55.70
20526;DHT22;10421;49.142;9.232;2023-05-07T12:11:10;30.40;54.90
20526;DHT22;10421;49.142;9.232;2023-05-07T12:13:38;30.40;54.30
20526;DHT22;10421;49.142;9.232;2023-05-07T12:16:06;30.50;54.60
20526;DHT22;10421;49.142;9.232;2023-05-07T12:18:34;30.60;54.80
20526;DHT22;10421;49.142;9.232;2023-05-07T12:21:01;30.60;54.70
20526;DHT22;10421;49.142;9.232;2023-05-07T12:23:29;30.70;54.50
20526;DHT22;10421;49.142;9.232;2023-05-07T12:25:57;30.80;54.30
20526;DHT22;10421;49.142;9.232;2023-05-07T12:28:24;30.80;54.00
20526;DHT22;10421;49.142;9.232;2023-05-07T12:30:50;30.90;54.00
20526;DHT22;10421;49.142;9.232;2023-05-07T12:33:18;31.10;54.30
20526;DHT22;10421;49.142;9.232;2023-05-07T12:35:47;31.10;53.50
20526;DHT22;10421;49.142;9.232;2023-05-07T12:38:16;31.00;53.30
20526;DHT22;10421;49.142;9.232;2023-05-07T12:40:45;31.00;52.80
20526;DHT22;10421;49.142;9.232;2023-05-07T12:43:17;31.00;52.70
20526;DHT22;10421;49.142;9.232;2023-05-07T12:45:45;31.10;52.70
20526;DHT22;10421;49.142;9.232;2023-05-07T12:48:13;31.10;51.50
20526;DHT22;10421;49.142;9.232;2023-05-07T12:50:40;31.10;52.10
20526;DHT22;10421;49.142;9.232;2023-05-07T12:53:07;31.10;52.00
20526;DHT22;10421;49.142;9.232;2023-05-07T12:55:44;31.20;52.30
20526;DHT22;10421;49.142;9.232;2023-05-07T12:58:19;31.10;52.40
20526;DHT22;10421;49.142;9.232;2023-05-07T13:00:48;31.00;51.60
20526;DHT22;10421;49.142;9.232;2023-05-07T13:03:22;30.90;51.30
20526;DHT22;10421;49.142;9.232;2023-05-07T13:05:50;30.70;51.40
20526;DHT22;10421;49.142;9.232;2023-05-07T13:08:27;30.60;51.10
20526;DHT22;10421;49.142;9.232;2023-05-07T13:10:54;30.50;51.70
20526;DHT22;10421;49.142;9.232;2023-05-07T13:13:22;30.40;52.40
20526;DHT22;10421;49.142;9.232;2023-05-07T13:15:49;30.20;52.30
20526;DHT22;10421;49.142;9.232;2023-05-07T13:18:15;30.10;52.60
20526;DHT22;10421;49.142;9.232;2023-05-07T13:20:42;30.00;52.70
20526;DHT22;10421;49.142;9.232;2023-05-07T13:23:09;29.80;52.40
20526;DHT22;10421;49.142;9.232;2023-05-07T13:25:36;29.70;52.40
20526;DHT22;10421;49.142;9.232;2023-05-07T13:28:03;29.50;52.80
20526;DHT22;10421;49.142;9.232;2023-05-07T13:30:31;29.30;53.00
20526;DHT22;10421;49.142;9.232;2023-05-07T13:32:58;29.10;53.00
20526;DHT22;10421;49.142;9.232;2023-05-07T13:35:25;28.90;53.50
20526;DHT22;10421;49.142;9.232;2023-05-07T13:37:52;28.80;54.10
20526;DHT22;10421;49.142;9.232;2023-05-07T13:40:20;28.70;54.30
20526;DHT22;10421;49.142;9.232;2023-05-07T13:42:47;28.60;54.50
20526;DHT22;10421;49.142;9.232;2023-05-07T13:45:14;28.50;54.40
20526;DHT22;10421;49.142;9.232;2023-05-07T13:47:42;28.40;54.50
20526;DHT22;10421;49.142;9.232;2023-05-07T13:50:10;28.20;54.80
20526;DHT22;10421;49.142;9.232;2023-05-07T13:52:39;28.10;55.20
20526;DHT22;10421;49.142;9.232;2023-05-07T13:55:07;27.90;55.50
20526;DHT22;10421;49.142;9.232;2023-05-07T13:57:33;27.80;56.10
20526;DHT22;10421;49.142;9.232;2023-05-07T14:00:00;27.70;56.80
20526;DHT22;10421;49.142;9.232;2023-05-07T14:02:27;27.60;57.00
20526;DHT22;10421;49.142;9.232;2023-05-07T14:04:55;27.50;57.50
20526;DHT22;10421;49.142;9.232;2023-05-07T14:07:22;27.40;57.80
20526;DHT22;10421;49.142;9.232;2023-05-07T14:09:48;27.30;58.50
20526;DHT22;10421;49.142;9.232;2023-05-07T14:12:15;26.80;62.50
20526;DHT22;10421;49.142;9.232;2023-05-07T14:14:42;26.10;66.30
20526;DHT22;10421;49.142;9.232;2023-05-07T14:17:09;25.50;70.60
20526;DHT22;10421;49.142;9.232;2023-05-07T14:19:35;24.80;75.10
20526;DHT22;10421;49.142;9.232;2023-05-07T14:22:04;24.20;80.40
20526;DHT22;10421;49.142;9.232;2023-05-07T14:24:30;23.50;87.10
20526;DHT22;10421;49.142;9.232;2023-05-07T14:26:57;23.00;90.80
20526;DHT22;10421;49.142;9.232;2023-05-07T14:29:24;22.50;93.60
20526;DHT22;10421;49.142;9.232;2023-05-07T14:31:51;22.30;94.80
20526;DHT22;10421;49.142;9.232;2023-05-07T14:34:17;22.00;96.40
20526;DHT22;10421;49.142;9.232;2023-05-07T14:36:44;21.70;97.50
20526;DHT22;10421;49.142;9.232;2023-05-07T14:39:12;21.50;97.30
20526;DHT22;10421;49.142;9.232;2023-05-07T14:41:39;21.40;97.70
20526;DHT22;10421;49.142;9.232;2023-05-07T14:44:06;21.30;98.10
20526;DHT22;10421;49.142;9.232;2023-05-07T14:46:33;21.20;98.60
20526;DHT22;10421;49.142;9.232;2023-05-07T14:49:00;21.10;98.20
20526;DHT22;10421;49.142;9.232;2023-05-07T14:51:26;21.00;98.60
20526;DHT22;10421;49.142;9.232;2023-05-07T14:53:54;21.00;98.30
20526;DHT22;10421;49.142;9.232;2023-05-07T14:56:22;21.00;98.50
20526;DHT22;10421;49.142;9.232;2023-05-07T14:58:49;20.90;99.00
20526;DHT22;10421;49.142;9.232;2023-05-07T15:01:16;20.90;99.00
20526;DHT22;10421;49.142;9.232;2023-05-07T15:03:43;20.90;99.00
20526;DHT22;10421;49.142;9.232;2023-05-07T15:06:09;20.80;99.10
20526;DHT22;10421;49.142;9.232;2023-05-07T15:08:37;20.90;99.50
20526;DHT22;10421;49.142;9.232;2023-05-07T15:11:03;21.00;99.80
20526;DHT22;10421;49.142;9.232;2023-05-07T15:13:31;21.00;99.90
20526;DHT22;10421;49.142;9.232;2023-05-07T15:15:58;21.00;99.40
20526;DHT22;10421;49.142;9.232;2023-05-07T15:18:25;21.00;99.50
20526;DHT22;10421;49.142;9.232;2023-05-07T15:20:52;21.10;99.70
20526;DHT22;10421;49.142;9.232;2023-05-07T15:23:18;21.10;99.90
20526;DHT22;10421;49.142;9.232;2023-05-07T15:25:45;21.10;99.90
20526;DHT22;10421;49.142;9.232;2023-05-07T15:28:12;21.20;99.90
20526;DHT22;10421;49.142;9.232;2023-05-07T15:30:40;21.20;99.90
20526;DHT22;10421;49.142;9.232;2023-05-07T15:33:07;21.30;99.90
20526;DHT22;10421;49.142;9.232;2023-05-07T15:35:34;21.40;99.90